sensor_id;sensor_type;location;lat;lon;timestamp;pressure;altitude;pressure_sealevel;temperature;humidity
64368;BME280;50692;53.314;-6.300;2023-04-05T00:02:11;101436.03;;;12.18;83.85
64368;BME280;50692;53.314;-6.300;2023-04-05T00:04:58;101427.50;;;12.11;84.19
64368;BME280;50692;53.314;-6.300;2023-04-05T00:07:45;101430.22;;;12.10;84.36
64368;BME280;50692;53.314;-6.300;2023-04-05T00:10:32;101425.38;;;12.00;84.97
64368;BME280;50692;53.314;-6.300;2023-04-05T00:13:20;101417.41;;;12.00;84.64
64368;BME280;50692;53.314;-6.300;2023-04-05T00:16:06;101408.63;;;12.00;84.99
64368;BME280;50692;53.314;-6.300;2023-04-05T00:18:53;101410.31;;;12.01;85.00
64368;BME280;50692;53.314;-6.300;2023-04-05T00:21:39;101387.84;;;11.91;84.81
64368;BME280;50692;53.314;-6.300;2023-04-05T00:24:25;101386.91;;;11.92;84.98
64368;BME280;50692;53.314;-6.300;2023-04-05T00:27:13;101393.06;;;11.92;85.79
64368;BME280;50692;53.314;-6.300;2023-04-05T00:29:59;101384.41;;;11.89;86.55
64368;BME280;50692;53.314;-6.300;2023-04-05T00:32:49;101385.47;;;11.85;88.16
64368;BME280;50692;53.314;-6.300;2023-04-05T00:35:35;101383.03;;;11.80;88.64
64368;BME280;50692;53.314;-6.300;2023-04-05T00:38:21;101385.09;;;11.73;89.58
64368;BME280;50692;53.314;-6.300;2023-04-05T00:41:07;101349.47;;;11.62;90.17
64368;BME280;50692;53.314;-6.300;2023-04-05T00:43:53;101368.63;;;11.67;89.57
64368;BME280;50692;53.314;-6.300;2023-04-05T00:46:39;101365.94;;;11.68;89.30
64368;BME280;50692;53.314;-6.300;2023-04-05T00:49:28;101349.09;;;11.69;89.13
64368;BME280;50692;53.314;-6.300;2023-04-05T00:52:14;101352.31;;;11.76;88.31
64368;BME280;50692;53.314;-6.300;2023-04-05T00:55:00;101341.16;;;11.69;88.44
64368;BME280;50692;53.314;-6.300;2023-04-05T00:57:46;101365.56;;;11.76;88.10
64368;BME280;50692;53.314;-6.300;2023-04-05T01:00:37;101342.09;;;11.68;88.25
64368;BME280;50692;53.314;-6.300;2023-04-05T01:03:25;101360.25;;;11.76;88.28
64368;BME280;50692;53.314;-6.300;2023-04-05T01:09:37;101344.16;;;11.81;87.75
64368;BME280;50692;53.314;-6.300;2023-04-05T01:12:31;101351.91;;;11.85;87.47
64368;BME280;50692;53.314;-6.300;2023-04-05T01:15:17;101342.19;;;11.86;87.04
64368;BME280;50692;53.314;-6.300;2023-04-05T01:18:03;101341.00;;;11.91;86.99
64368;BME280;50692;53.314;-6.300;2023-04-05T01:21:00;101350.75;;;11.91;86.77
64368;BME280;50692;53.314;-6.300;2023-04-05T01:30:04;101344.38;;;11.95;86.67
64368;BME280;50692;53.314;-6.300;2023-04-05T01:33:02;101334.78;;;11.92;87.36
64368;BME280;50692;53.314;-6.300;2023-04-05T01:36:06;101348.09;;;11.91;87.60
64368;BME280;50692;53.314;-6.300;2023-04-05T01:38:53;101341.25;;;11.87;88.06
64368;BME280;50692;53.314;-6.300;2023-04-05T01:41:40;101332.56;;;11.83;88.47
64368;BME280;50692;53.314;-6.300;2023-04-05T01:44:27;101334.25;;;11.86;88.42
64368;BME280;50692;53.314;-6.300;2023-04-05T01:47:13;101334.25;;;11.86;88.58
64368;BME280;50692;53.314;-6.300;2023-04-05T01:49:58;101329.78;;;11.86;88.60
64368;BME280;50692;53.314;-6.300;2023-04-05T01:52:44;101333.50;;;11.82;88.93
64368;BME280;50692;53.314;-6.300;2023-04-05T01:55:30;101338.66;;;11.85;89.06
64368;BME280;50692;53.314;-6.300;2023-04-05T01:58:16;101335.19;;;11.83;89.20
64368;BME280;50692;53.314;-6.300;2023-04-05T02:01:01;101312.97;;;11.68;89.33
64368;BME280;50692;53.314;-6.300;2023-04-05T02:03:47;101323.03;;;11.79;89.65
64368;BME280;50692;53.314;-6.300;2023-04-05T02:06:33;101310.72;;;11.78;89.45
64368;BME280;50692;53.314;-6.300;2023-04-05T02:09:19;101305.34;;;11.80;89.49
64368;BME280;50692;53.314;-6.300;2023-04-05T02:12:04;101305.34;;;11.80;89.69
64368;BME280;50692;53.314;-6.300;2023-04-05T02:14:50;101306.31;;;11.79;89.69
64368;BME280;50692;53.314;-6.300;2023-04-05T02:17:37;101301.84;;;11.79;89.70
64368;BME280;50692;53.314;-6.300;2023-04-05T02:20:30;101309.94;;;11.76;89.93
64368;BME280;50692;53.314;-6.300;2023-04-05T02:23:17;101313.22;;;11.81;89.80
64368;BME280;50692;53.314;-6.300;2023-04-05T02:26:03;101318.59;;;11.80;89.74
64368;BME280;50692;53.314;-6.300;2023-04-05T02:28:49;101299.06;;;11.82;89.84
64368;BME280;50692;53.314;-6.300;2023-04-05T02:31:35;101293.97;;;11.77;90.02
64368;BME280;50692;53.314;-6.300;2023-04-05T02:34:21;101297.56;;;11.76;90.39
64368;BME280;50692;53.314;-6.300;2023-04-05T02:37:07;101292.34;;;11.75;90.62
64368;BME280;50692;53.314;-6.300;2023-04-05T02:39:53;101295.91;;;11.74;90.81
64368;BME280;50692;53.314;-6.300;2023-04-05T02:42:39;101282.47;;;11.79;90.67
64368;BME280;50692;53.314;-6.300;2023-04-05T02:45:25;101276.13;;;11.81;90.79
64368;BME280;50692;53.314;-6.300;2023-04-05T02:48:14;101265.88;;;11.75;90.92
64368;BME280;50692;53.314;-6.300;2023-04-05T02:50:59;101273.38;;;11.84;90.79
64368;BME280;50692;53.314;-6.300;2023-04-05T02:53:45;101287.47;;;11.85;90.93
64368;BME280;50692;53.314;-6.300;2023-04-05T02:56:33;101278.66;;;11.84;90.83
64368;BME280;50692;53.314;-6.300;2023-04-05T02:59:19;101289.25;;;11.84;91.20
64368;BME280;50692;53.314;-6.300;2023-04-05T03:02:05;101262.84;;;11.83;91.14
64368;BME280;50692;53.314;-6.300;2023-04-05T03:04:51;101262.13;;;11.79;91.38
64368;BME280;50692;53.314;-6.300;2023-04-05T03:07:40;101263.69;;;11.83;91.50
64368;BME280;50692;53.314;-6.300;2023-04-05T03:10:27;101257.47;;;11.84;91.66
64368;BME280;50692;53.314;-6.300;2023-04-05T03:13:13;101264.56;;;11.84;91.96
64368;BME280;50692;53.314;-6.300;2023-04-05T03:15:59;101257.41;;;11.86;92.02
64368;BME280;50692;53.314;-6.300;2023-04-05T03:18:45;101257.47;;;11.84;92.37
64368;BME280;50692;53.314;-6.300;2023-04-05T03:21:31;101254.03;;;11.82;92.95
64368;BME280;50692;53.314;-6.300;2023-04-05T03:24:18;101246.38;;;11.76;93.61
64368;BME280;50692;53.314;-6.300;2023-04-05T03:27:04;101238.34;;;11.77;93.90
64368;BME280;50692;53.314;-6.300;2023-04-05T03:29:50;101249.03;;;11.76;94.33
64368;BME280;50692;53.314;-6.300;2023-04-05T03:32:36;101240.13;;;11.77;94.32
64368;BME280;50692;53.314;-6.300;2023-04-05T03:35:22;101238.28;;;11.79;94.24
64368;BME280;50692;53.314;-6.300;2023-04-05T03:38:08;101234.56;;;11.83;94.17
64368;BME280;50692;53.314;-6.300;2023-04-05T03:40:53;101238.09;;;11.84;94.45
64368;BME280;50692;53.314;-6.300;2023-04-05T03:43:39;101235.28;;;11.87;94.48
64368;BME280;50692;53.314;-6.300;2023-04-05T03:46:25;101232.69;;;11.85;94.93
64368;BME280;50692;53.314;-6.300;2023-04-05T03:49:11;101230.75;;;11.89;94.85
64368;BME280;50692;53.314;-6.300;2023-04-05T03:51:57;101240.50;;;11.88;95.11
64368;BME280;50692;53.314;-6.300;2023-04-05T03:54:43;101240.28;;;11.93;94.81
64368;BME280;50692;53.314;-6.300;2023-04-05T03:57:29;101240.34;;;11.91;95.25
64368;BME280;50692;53.314;-6.300;2023-04-05T04:00:15;101226.34;;;11.89;95.48
64368;BME280;50692;53.314;-6.300;2023-04-05T04:03:04;101235.91;;;11.92;95.47
64368;BME280;50692;53.314;-6.300;2023-04-05T04:05:51;101229.84;;;11.90;95.88
64368;BME280;50692;53.314;-6.300;2023-04-05T04:08:36;101224.59;;;11.88;96.25
64368;BME280;50692;53.314;-6.300;2023-04-05T04:11:22;101233.41;;;11.89;96.59
64368;BME280;50692;53.314;-6.300;2023-04-05T04:14:08;101233.63;;;11.84;97.37
64368;BME280;50692;53.314;-6.300;2023-04-05T04:16:54;101232.78;;;11.84;97.56
64368;BME280;50692;53.314;-6.300;2023-04-05T04:19:40;101239.72;;;11.86;97.43
64368;BME280;50692;53.314;-6.300;2023-04-05T04:22:26;101229.50;;;11.79;97.73
64368;BME280;50692;53.314;-6.300;2023-04-05T04:25:17;101242.63;;;11.80;98.29
64368;BME280;50692;53.314;-6.300;2023-04-05T04:28:05;101232.13;;;11.79;98.63
64368;BME280;50692;53.314;-6.300;2023-04-05T04:30:54;101220.19;;;11.70;98.99
64368;BME280;50692;53.314;-6.300;2023-04-05T04:33:40;101227.91;;;11.74;99.07
64368;BME280;50692;53.314;-6.300;2023-04-05T04:36:28;101228.06;;;11.71;99.16
64368;BME280;50692;53.314;-6.300;2023-04-05T04:39:19;101223.94;;;11.66;99.54
64368;BME280;50692;53.314;-6.300;2023-04-05T04:42:07;101230.63;;;11.73;99.34
64368;BME280;50692;53.314;-6.300;2023-04-05T04:44:56;101219.25;;;11.71;99.05
64368;BME280;50692;53.314;-6.300;2023-04-05T04:47:43;101220.28;;;11.68;99.20
64368;BME280;50692;53.314;-6.300;2023-04-05T04:50:30;101219.56;;;11.65;99.44
64368;BME280;50692;53.314;-6.300;2023-04-05T04:53:16;101206.09;;;11.69;99.12
64368;BME280;50692;53.314;-6.300;2023-04-05T04:56:06;101210.31;;;11.73;98.58
64368;BME280;50692;53.314;-6.300;2023-04-05T04:58:54;101215.34;;;11.78;98.56
64368;BME280;50692;53.314;-6.300;2023-04-05T05:01:44;101216.31;;;11.77;98.66
64368;BME280;50692;53.314;-6.300;2023-04-05T05:04:29;101204.84;;;11.76;98.60
64368;BME280;50692;53.314;-6.300;2023-04-05T05:07:16;101207.25;;;11.81;98.42
64368;BME280;50692;53.314;-6.300;2023-04-05T05:10:04;101207.22;;;11.83;98.33
64368;BME280;50692;53.314;-6.300;2023-04-05T05:12:49;101197.41;;;11.85;98.21
64368;BME280;50692;53.314;-6.300;2023-04-05T05:15:38;101205.41;;;11.83;98.38
64368;BME280;50692;53.314;-6.300;2023-04-05T05:18:25;101199.19;;;11.84;97.92
64368;BME280;50692;53.314;-6.300;2023-04-05T05:21:11;101200.69;;;11.90;97.73
64368;BME280;50692;53.314;-6.300;2023-04-05T05:23:57;101188.47;;;11.87;97.53
64368;BME280;50692;53.314;-6.300;2023-04-05T05:26:43;101187.47;;;11.90;97.46
64368;BME280;50692;53.314;-6.300;2023-04-05T05:29:29;101192.59;;;11.93;97.12
64368;BME280;50692;53.314;-6.300;2023-04-05T05:32:14;101184.41;;;11.97;96.90
64368;BME280;50692;53.314;-6.300;2023-04-05T05:35:01;101195.78;;;11.99;96.95
64368;BME280;50692;53.314;-6.300;2023-04-05T05:37:47;101192.19;;;12.00;96.72
64368;BME280;50692;53.314;-6.300;2023-04-05T05:40:33;101188.63;;;12.02;96.81
64368;BME280;50692;53.314;-6.300;2023-04-05T05:43:19;101198.06;;;12.07;96.64
64368;BME280;50692;53.314;-6.300;2023-04-05T05:46:05;101197.00;;;12.10;96.39
64368;BME280;50692;53.314;-6.300;2023-04-05T05:48:51;101191.72;;;12.10;96.62
64368;BME280;50692;53.314;-6.300;2023-04-05T05:51:37;101196.84;;;12.13;96.30
64368;BME280;50692;53.314;-6.300;2023-04-05T05:54:24;101203.16;;;12.10;96.39
64368;BME280;50692;53.314;-6.300;2023-04-05T05:57:09;101199.50;;;12.13;96.50
64368;BME280;50692;53.314;-6.300;2023-04-05T05:59:55;101198.66;;;12.12;96.39
64368;BME280;50692;53.314;-6.300;2023-04-05T06:02:41;101209.09;;;12.15;96.23
64368;BME280;50692;53.314;-6.300;2023-04-05T06:05:27;101206.28;;;12.18;96.35
64368;BME280;50692;53.314;-6.300;2023-04-05T06:08:13;101201.06;;;12.17;96.26
64368;BME280;50692;53.314;-6.300;2023-04-05T06:10:59;101188.22;;;12.09;96.22
64368;BME280;50692;53.314;-6.300;2023-04-05T06:13:45;101191.66;;;12.11;96.34
64368;BME280;50692;53.314;-6.300;2023-04-05T06:16:31;101196.56;;;12.19;96.25
64368;BME280;50692;53.314;-6.300;2023-04-05T06:19:16;101199.09;;;12.20;96.41
64368;BME280;50692;53.314;-6.300;2023-04-05T06:22:02;101192.91;;;12.21;96.34
64368;BME280;50692;53.314;-6.300;2023-04-05T06:24:48;101193.66;;;12.23;96.23
64368;BME280;50692;53.314;-6.300;2023-04-05T06:27:34;101186.41;;;12.27;96.09
64368;BME280;50692;53.314;-6.300;2023-04-05T06:30:20;101195.03;;;12.31;95.84
64368;BME280;50692;53.314;-6.300;2023-04-05T06:33:06;101190.69;;;12.30;95.98
64368;BME280;50692;53.314;-6.300;2023-04-05T06:35:52;101183.50;;;12.32;96.11
64368;BME280;50692;53.314;-6.300;2023-04-05T06:38:37;101191.44;;;12.32;96.30
64368;BME280;50692;53.314;-6.300;2023-04-05T06:41:23;101186.25;;;12.30;96.71
64368;BME280;50692;53.314;-6.300;2023-04-05T06:44:09;101183.50;;;12.32;96.47
64368;BME280;50692;53.314;-6.300;2023-04-05T06:46:55;101154.75;;;12.24;96.65
64368;BME280;50692;53.314;-6.300;2023-04-05T06:49:41;101174.78;;;12.30;96.71
64368;BME280;50692;53.314;-6.300;2023-04-05T06:52:27;101174.53;;;12.34;96.78
64368;BME280;50692;53.314;-6.300;2023-04-05T06:55:13;101170.94;;;12.35;96.68
64368;BME280;50692;53.314;-6.300;2023-04-05T06:57:59;101175.22;;;12.38;96.61
64368;BME280;50692;53.314;-6.300;2023-04-05T07:00:45;101152.38;;;12.35;96.40
64368;BME280;50692;53.314;-6.300;2023-04-05T07:03:31;101171.84;;;12.52;96.47
64368;BME280;50692;53.314;-6.300;2023-04-05T07:06:18;101172.44;;;12.57;96.27
64368;BME280;50692;53.314;-6.300;2023-04-05T07:09:04;101177.53;;;12.61;95.90
64368;BME280;50692;53.314;-6.300;2023-04-05T07:11:49;101169.63;;;12.60;96.13
64368;BME280;50692;53.314;-6.300;2023-04-05T07:14:36;101175.78;;;12.60;95.80
64368;BME280;50692;53.314;-6.300;2023-04-05T07:17:22;101177.94;;;12.69;95.55
64368;BME280;50692;53.314;-6.300;2023-04-05T07:20:08;101183.84;;;12.75;95.34
64368;BME280;50692;53.314;-6.300;2023-04-05T07:22:54;101169.50;;;12.79;95.16
64368;BME280;50692;53.314;-6.300;2023-04-05T07:25:40;101167.59;;;12.81;95.06
64368;BME280;50692;53.314;-6.300;2023-04-05T07:28:26;101166.59;;;12.83;94.78
64368;BME280;50692;53.314;-6.300;2023-04-05T07:31:13;101160.94;;;12.89;94.62
64368;BME280;50692;53.314;-6.300;2023-04-05T07:34:00;101167.16;;;12.88;94.53
64368;BME280;50692;53.314;-6.300;2023-04-05T07:36:46;101175.75;;;12.93;94.41
64368;BME280;50692;53.314;-6.300;2023-04-05T07:39:32;101173.84;;;12.95;94.18
64368;BME280;50692;53.314;-6.300;2023-04-05T07:42:18;101168.47;;;12.97;94.07
64368;BME280;50692;53.314;-6.300;2023-04-05T07:45:06;101169.34;;;12.98;94.08
64368;BME280;50692;53.314;-6.300;2023-04-05T07:47:52;101172.75;;;13.00;94.10
64368;BME280;50692;53.314;-6.300;2023-04-05T07:50:38;101130.78;;;12.75;94.11
64368;BME280;50692;53.314;-6.300;2023-04-05T07:53:25;101155.53;;;12.91;93.91
64368;BME280;50692;53.314;-6.300;2023-04-05T07:56:30;101153.66;;;13.09;93.84
64368;BME280;50692;53.314;-6.300;2023-04-05T07:59:46;101164.22;;;13.26;93.34
64368;BME280;50692;53.314;-6.300;2023-04-05T08:02:39;101134.53;;;13.18;93.43
64368;BME280;50692;53.314;-6.300;2023-04-05T08:05:43;101144.50;;;13.30;93.04
64368;BME280;50692;53.314;-6.300;2023-04-05T08:08:29;101159.47;;;13.47;92.81
64368;BME280;50692;53.314;-6.300;2023-04-05T08:11:15;101086.28;;;13.11;92.04
64368;BME280;50692;53.314;-6.300;2023-04-05T08:14:02;101103.16;;;13.26;91.50
64368;BME280;50692;53.314;-6.300;2023-04-05T08:16:47;101147.53;;;13.54;91.27
64368;BME280;50692;53.314;-6.300;2023-04-05T08:19:37;101169.41;;;13.74;90.99
64368;BME280;50692;53.314;-6.300;2023-04-05T08:22:30;101161.16;;;13.78;90.55
64368;BME280;50692;53.314;-6.300;2023-04-05T08:25:16;101117.03;;;13.61;90.43
64368;BME280;50692;53.314;-6.300;2023-04-05T08:28:02;101167.47;;;13.91;89.71
64368;BME280;50692;53.314;-6.300;2023-04-05T08:30:52;101159.13;;;13.98;89.32
64368;BME280;50692;53.314;-6.300;2023-04-05T08:33:39;101155.63;;;13.97;89.47
64368;BME280;50692;53.314;-6.300;2023-04-05T08:36:25;101160.84;;;13.99;89.48
64368;BME280;50692;53.314;-6.300;2023-04-05T08:39:11;101151.25;;;13.96;89.95
64368;BME280;50692;53.314;-6.300;2023-04-05T08:42:14;101156.47;;;13.98;89.81
64368;BME280;50692;53.314;-6.300;2023-04-05T08:45:02;101151.53;;;13.91;90.13
64368;BME280;50692;53.314;-6.300;2023-04-05T08:47:52;101155.81;;;13.94;89.70
64368;BME280;50692;53.314;-6.300;2023-04-05T08:50:38;101139.56;;;13.84;89.56
64368;BME280;50692;53.314;-6.300;2023-04-05T08:53:36;101081.56;;;13.47;89.02
64368;BME280;50692;53.314;-6.300;2023-04-05T08:59:31;101016.63;;;12.92;88.77
64368;BME280;50692;53.314;-6.300;2023-04-05T09:02:26;101100.97;;;13.63;88.98
64368;BME280;50692;53.314;-6.300;2023-04-05T09:05:15;101066.22;;;13.37;89.06
64368;BME280;50692;53.314;-6.300;2023-04-05T09:08:03;101115.31;;;13.75;89.29
64368;BME280;50692;53.314;-6.300;2023-04-05T09:10:50;101131.00;;;13.79;88.86
64368;BME280;50692;53.314;-6.300;2023-04-05T09:13:38;101066.31;;;13.50;88.51
64368;BME280;50692;53.314;-6.300;2023-04-05T09:16:24;101098.06;;;13.82;88.29
64368;BME280;50692;53.314;-6.300;2023-04-05T09:19:19;101129.91;;;14.12;87.92
64368;BME280;50692;53.314;-6.300;2023-04-05T09:22:12;101133.31;;;14.14;87.39
64368;BME280;50692;53.314;-6.300;2023-04-05T09:25:36;101129.91;;;14.40;86.55
64368;BME280;50692;53.314;-6.300;2023-04-05T09:28:42;101098.94;;;14.39;85.95
64368;BME280;50692;53.314;-6.300;2023-04-05T09:31:36;101134.16;;;14.86;85.15
64368;BME280;50692;53.314;-6.300;2023-04-05T09:34:22;101090.63;;;14.87;85.22
64368;BME280;50692;53.314;-6.300;2023-04-05T09:37:12;101142.47;;;15.35;82.16
64368;BME280;50692;53.314;-6.300;2023-04-05T09:40:03;101087.47;;;14.95;80.38
64368;BME280;50692;53.314;-6.300;2023-04-05T09:42:55;101090.97;;;14.95;80.66
64368;BME280;50692;53.314;-6.300;2023-04-05T09:45:48;101114.44;;;15.03;81.04
64368;BME280;50692;53.314;-6.300;2023-04-05T09:48:48;101085.00;;;14.92;81.21
64368;BME280;50692;53.314;-6.300;2023-04-05T09:51:47;101095.38;;;14.82;80.39
64368;BME280;50692;53.314;-6.300;2023-04-05T09:54:40;101063.63;;;14.52;80.92
64368;BME280;50692;53.314;-6.300;2023-04-05T09:57:28;101068.56;;;14.44;81.56
64368;BME280;50692;53.314;-6.300;2023-04-05T10:00:47;101078.97;;;14.47;82.52
64368;BME280;50692;53.314;-6.300;2023-04-05T10:03:48;101084.16;;;14.50;82.57
64368;BME280;50692;53.314;-6.300;2023-04-05T10:06:41;101065.91;;;14.58;82.17
64368;BME280;50692;53.314;-6.300;2023-04-05T10:09:27;101063.34;;;14.56;81.40
64368;BME280;50692;53.314;-6.300;2023-04-05T10:12:33;101117.25;;;15.14;81.39
64368;BME280;50692;53.314;-6.300;2023-04-05T10:15:24;101139.53;;;15.40;79.91
64368;BME280;50692;53.314;-6.300;2023-04-05T10:18:20;101100.75;;;15.49;79.23
64368;BME280;50692;53.314;-6.300;2023-04-05T10:21:10;101104.00;;;15.67;77.06
64368;BME280;50692;53.314;-6.300;2023-04-05T10:24:28;101128.00;;;15.92;76.66
64368;BME280;50692;53.314;-6.300;2023-04-05T10:27:29;101130.25;;;16.11;75.68
64368;BME280;50692;53.314;-6.300;2023-04-05T10:30:17;101134.75;;;16.11;74.88
64368;BME280;50692;53.314;-6.300;2023-04-05T10:33:15;101070.13;;;15.69;74.99
64368;BME280;50692;53.314;-6.300;2023-04-05T10:36:44;101137.50;;;16.22;75.33
64368;BME280;50692;53.314;-6.300;2023-04-05T10:39:44;101127.69;;;16.22;74.86
64368;BME280;50692;53.314;-6.300;2023-04-05T10:42:50;101116.50;;;16.30;74.53
64368;BME280;50692;53.314;-6.300;2023-04-05T10:45:37;101123.09;;;16.24;73.46
64368;BME280;50692;53.314;-6.300;2023-04-05T10:51:33;101100.91;;;16.24;73.78
64368;BME280;50692;53.314;-6.300;2023-04-05T10:54:21;101119.25;;;16.41;73.92
64368;BME280;50692;53.314;-6.300;2023-04-05T10:57:08;101121.94;;;16.28;74.25
64368;BME280;50692;53.314;-6.300;2023-04-05T10:59:56;101128.97;;;16.29;74.54
64368;BME280;50692;53.314;-6.300;2023-04-05T11:02:44;101132.16;;;16.22;74.10
64368;BME280;50692;53.314;-6.300;2023-04-05T11:05:34;101121.72;;;16.19;74.90
64368;BME280;50692;53.314;-6.300;2023-04-05T11:08:22;101128.44;;;16.24;74.47
64368;BME280;50692;53.314;-6.300;2023-04-05T11:11:10;101126.09;;;16.20;74.20
64368;BME280;50692;53.314;-6.300;2023-04-05T11:13:57;101114.13;;;16.25;74.43
64368;BME280;50692;53.314;-6.300;2023-04-05T11:16:48;101119.56;;;16.49;73.71
64368;BME280;50692;53.314;-6.300;2023-04-05T11:22:32;101121.44;;;16.73;72.05
64368;BME280;50692;53.314;-6.300;2023-04-05T11:25:27;101115.22;;;16.72;72.97
64368;BME280;50692;53.314;-6.300;2023-04-05T11:28:34;101116.63;;;16.65;72.38
64368;BME280;50692;53.314;-6.300;2023-04-05T11:31:26;101104.53;;;16.72;72.52
64368;BME280;50692;53.314;-6.300;2023-04-05T11:34:14;101089.09;;;16.77;72.18
64368;BME280;50692;53.314;-6.300;2023-04-05T11:37:10;101115.34;;;16.84;72.21
64368;BME280;50692;53.314;-6.300;2023-04-05T11:40:48;101102.66;;;16.74;72.56
64368;BME280;50692;53.314;-6.300;2023-04-05T11:43:28;101087.81;;;16.70;72.46
64368;BME280;50692;53.314;-6.300;2023-04-05T11:46:17;101071.03;;;16.68;71.98
64368;BME280;50692;53.314;-6.300;2023-04-05T11:49:07;101025.56;;;16.33;71.93
64368;BME280;50692;53.314;-6.300;2023-04-05T11:51:53;101098.94;;;16.77;72.16
64368;BME280;50692;53.314;-6.300;2023-04-05T11:54:39;101088.03;;;16.67;72.11
64368;BME280;50692;53.314;-6.300;2023-04-05T11:57:31;101078.69;;;16.49;72.65
64368;BME280;50692;53.314;-6.300;2023-04-05T12:00:20;101083.25;;;16.47;73.65
64368;BME280;50692;53.314;-6.300;2023-04-05T12:03:12;101044.28;;;16.20;74.38
64368;BME280;50692;53.314;-6.300;2023-04-05T12:06:02;101078.81;;;16.35;74.50
64368;BME280;50692;53.314;-6.300;2023-04-05T12:08:48;101053.75;;;16.12;73.99
64368;BME280;50692;53.314;-6.300;2023-04-05T12:11:35;101056.22;;;16.15;74.13
64368;BME280;50692;53.314;-6.300;2023-04-05T12:14:22;101066.03;;;16.27;73.85
64368;BME280;50692;53.314;-6.300;2023-04-05T12:17:09;101070.59;;;16.38;74.23
64368;BME280;50692;53.314;-6.300;2023-04-05T12:20:02;101062.53;;;16.26;73.84
64368;BME280;50692;53.314;-6.300;2023-04-05T12:22:48;101070.53;;;16.26;74.18
64368;BME280;50692;53.314;-6.300;2023-04-05T12:25:37;101064.72;;;16.33;73.93
64368;BME280;50692;53.314;-6.300;2023-04-05T12:28:48;101053.66;;;16.13;74.54
64368;BME280;50692;53.314;-6.300;2023-04-05T12:31:34;101057.94;;;16.16;75.24
64368;BME280;50692;53.314;-6.300;2023-04-05T12:34:26;101047.03;;;16.19;75.24
64368;BME280;50692;53.314;-6.300;2023-04-05T12:37:12;101053.88;;;16.23;74.96
64368;BME280;50692;53.314;-6.300;2023-04-05T12:40:05;101042.34;;;16.22;74.99
64368;BME280;50692;53.314;-6.300;2023-04-05T12:42:51;101051.28;;;16.34;74.48
64368;BME280;50692;53.314;-6.300;2023-04-05T12:45:55;101021.25;;;16.19;74.24
64368;BME280;50692;53.314;-6.300;2023-04-05T12:48:48;101034.28;;;16.48;74.10
64368;BME280;50692;53.314;-6.300;2023-04-05T12:51:34;100984.63;;;16.21;73.46
64368;BME280;50692;53.314;-6.300;2023-04-05T12:54:22;101023.00;;;16.44;73.40
64368;BME280;50692;53.314;-6.300;2023-04-05T12:57:08;101029.34;;;16.54;73.35
64368;BME280;50692;53.314;-6.300;2023-04-05T12:59:57;101042.53;;;16.45;73.04
64368;BME280;50692;53.314;-6.300;2023-04-05T13:02:47;101029.28;;;16.43;73.28
64368;BME280;50692;53.314;-6.300;2023-04-05T13:05:33;100987.28;;;16.21;73.55
64368;BME280;50692;53.314;-6.300;2023-04-05T13:08:20;100987.19;;;16.23;73.95
64368;BME280;50692;53.314;-6.300;2023-04-05T13:11:08;101050.03;;;16.64;71.92
64368;BME280;50692;53.314;-6.300;2023-04-05T13:13:56;101056.63;;;16.71;71.47
64368;BME280;50692;53.314;-6.300;2023-04-05T13:16:44;101030.44;;;16.52;71.36
64368;BME280;50692;53.314;-6.300;2023-04-05T13:19:31;101056.00;;;16.80;71.35
64368;BME280;50692;53.314;-6.300;2023-04-05T13:22:18;101044.22;;;16.83;71.38
64368;BME280;50692;53.314;-6.300;2023-04-05T13:25:05;101055.19;;;16.91;71.18
64368;BME280;50692;53.314;-6.300;2023-04-05T13:27:53;101063.44;;;16.88;71.38
64368;BME280;50692;53.314;-6.300;2023-04-05T13:30:39;101018.97;;;16.63;71.46
64368;BME280;50692;53.314;-6.300;2023-04-05T13:33:27;101046.91;;;16.70;71.01
64368;BME280;50692;53.314;-6.300;2023-04-05T13:36:16;100991.75;;;16.34;71.07
64368;BME280;50692;53.314;-6.300;2023-04-05T13:39:02;101048.84;;;16.68;71.91
64368;BME280;50692;53.314;-6.300;2023-04-05T13:41:49;101050.53;;;16.69;71.83
64368;BME280;50692;53.314;-6.300;2023-04-05T13:44:36;101037.31;;;16.67;71.26
64368;BME280;50692;53.314;-6.300;2023-04-05T13:47:24;101046.16;;;16.68;71.21
64368;BME280;50692;53.314;-6.300;2023-04-05T13:50:11;101029.41;;;16.42;72.00
64368;BME280;50692;53.314;-6.300;2023-04-05T13:52:58;101013.88;;;16.47;72.10
64368;BME280;50692;53.314;-6.300;2023-04-05T13:55:45;101020.25;;;16.57;72.41
64368;BME280;50692;53.314;-6.300;2023-04-05T13:58:38;101000.78;;;16.44;72.53
64368;BME280;50692;53.314;-6.300;2023-04-05T14:01:27;101034.88;;;16.64;72.88
64368;BME280;50692;53.314;-6.300;2023-04-05T14:04:15;101021.47;;;16.53;72.87
64368;BME280;50692;53.314;-6.300;2023-04-05T14:07:02;101010.19;;;16.37;73.47
64368;BME280;50692;53.314;-6.300;2023-04-05T14:09:48;101023.00;;;16.44;73.61
64368;BME280;50692;53.314;-6.300;2023-04-05T14:12:35;101004.00;;;16.36;73.58
64368;BME280;50692;53.314;-6.300;2023-04-05T14:15:21;101007.75;;;16.34;73.81
64368;BME280;50692;53.314;-6.300;2023-04-05T14:18:07;100999.66;;;16.22;73.91
64368;BME280;50692;53.314;-6.300;2023-04-05T14:20:53;101004.78;;;16.25;73.88
64368;BME280;50692;53.314;-6.300;2023-04-05T14:23:44;101012.47;;;16.30;74.03
64368;BME280;50692;53.314;-6.300;2023-04-05T14:26:31;101022.69;;;16.36;74.19
64368;BME280;50692;53.314;-6.300;2023-04-05T14:29:19;101005.19;;;16.32;74.16
64368;BME280;50692;53.314;-6.300;2023-04-05T14:32:11;101021.19;;;16.45;73.97
64368;BME280;50692;53.314;-6.300;2023-04-05T14:34:59;100968.56;;;16.10;73.99
64368;BME280;50692;53.314;-6.300;2023-04-05T14:37:46;101007.00;;;16.31;74.26
64368;BME280;50692;53.314;-6.300;2023-04-05T14:40:34;101004.06;;;16.23;74.01
64368;BME280;50692;53.314;-6.300;2023-04-05T14:43:20;101001.53;;;16.09;74.45
64368;BME280;50692;53.314;-6.300;2023-04-05T14:46:05;100989.38;;;16.05;74.60
64368;BME280;50692;53.314;-6.300;2023-04-05T14:48:53;100983.63;;;15.98;74.40
64368;BME280;50692;53.314;-6.300;2023-04-05T14:51:40;100977.31;;;15.99;74.42